Time;durP1;ratioP1;P1;durP2;ratioP2;P2;SDS_P1;SDS_P2;PMS_P1;PMS_P2;Temp;Humidity;BMP_temperature;BMP_pressure;BME280_temperature;BME280_humidity;BME280_pressure;Samples;Min_cycle;Max_cycle;Signal;HPM_P1;HPM_P2
2022/04/10 00:05:02;;;;;;;7.40;3.10;;;;;;;0.61;82.44;100415.09;8632415;33;20907;-76
2022/04/10 00:10:07;;;;;;;10.15;4.53;;;;;;;0.44;83.58;100417.50;8656751;33;21945;-76
2022/04/10 00:15:12;;;;;;;5.50;3.37;;;;;;;0.66;82.92;100420.19;8656455;33;21810;-76
2022/04/10 00:20:15;;;;;;;10.80;4.70;;;;;;;0.53;83.30;100425.09;8630359;33;20233;-76
2022/04/10 00:25:20;;;;;;;5.60;2.97;;;;;;;0.05;84.52;100426.88;8635744;33;20463;-76
2022/04/10 00:30:25;;;;;;;10.83;3.63;;;;;;;0.41;84.13;100428.22;8635073;33;20498;-76
2022/04/10 00:35:28;;;;;;;9.67;3.27;;;;;;;0.28;84.16;100430.47;8635171;33;20641;-76
2022/04/10 00:40:31;;;;;;;3.83;2.20;;;;;;;0.22;83.98;100435.97;8657761;33;21567;-76
2022/04/10 00:45:36;;;;;;;9.67;3.37;;;;;;;0.25;84.33;100436.72;8655064;33;20452;-76
2022/04/10 00:51:40;;;;;;;5.73;3.23;;;;;;;0.49;83.15;100432.28;8628662;33;20146;-76
2022/04/10 00:56:05;;;;;;;10.47;2.40;;;;;;;0.04;84.16;100435.75;8627546;33;20926;-76
2022/04/10 01:01:10;;;;;;;15.33;5.17;;;;;;;0.16;84.30;100437.06;8628400;33;20428;-76
2022/04/10 01:06:14;;;;;;;4.83;2.33;;;;;;;0.19;84.07;100450.16;8628055;33;20445;-76
2022/04/10 01:11:18;;;;;;;2.93;2.10;;;;;;;0.11;83.81;100452.22;8627850;33;20154;-76
2022/04/10 01:16:24;;;;;;;2.00;1.80;;;;;;;0.16;83.46;100451.16;8632131;33;20142;-76
2022/04/10 01:21:29;;;;;;;9.07;2.97;;;;;;;0.19;83.67;100444.88;8633322;33;20243;-76
2022/04/10 01:26:38;;;;;;;8.53;2.40;;;;;;;-0.02;84.16;100449.16;8630192;33;20185;-76
2022/04/10 01:31:43;;;;;;;6.23;2.90;;;;;;;0.09;83.98;100457.56;8627200;33;20534;-76
2022/04/10 01:36:47;;;;;;;5.97;3.27;;;;;;;0.37;83.00;100462.69;8628759;33;20265;-76
2022/04/10 01:41:51;;;;;;;9.20;3.60;;;;;;;0.13;84.26;100458.31;8657534;33;20426;-76
2022/04/10 01:46:55;;;;;;;7.77;3.87;;;;;;;0.17;83.83;100454.66;8637702;33;20417;-76
2022/04/10 01:51:59;;;;;;;6.83;2.83;;;;;;;0.37;83.08;100452.13;8637152;33;20164;-76
2022/04/10 01:57:04;;;;;;;6.87;3.93;;;;;;;0.53;82.57;100460.31;8636883;33;20442;-76
2022/04/10 02:02:09;;;;;;;6.10;3.57;;;;;;;0.36;83.28;100460.97;8637751;33;20468;-76
2022/04/10 02:07:12;;;;;;;7.20;3.63;;;;;;;0.33;83.35;100465.50;8636780;33;20241;-76
2022/04/10 02:12:16;;;;;;;17.00;3.83;;;;;;;0.45;82.64;100456.25;8641800;33;20413;-76
2022/04/10 02:17:20;;;;;;;5.47;3.07;;;;;;;0.12;83.62;100462.72;8663316;33;20147;-76
2022/04/10 02:22:23;;;;;;;4.03;3.07;;;;;;;0.20;83.09;100456.31;8633508;33;20249;-76
2022/04/10 02:27:32;;;;;;;8.80;3.00;;;;;;;0.18;82.94;100451.06;8637553;33;20574;-76
2022/04/10 02:32:35;;;;;;;11.33;5.53;;;;;;;0.08;83.21;100458.50;8635291;33;20139;-76
2022/04/10 02:37:39;;;;;;;9.07;3.83;;;;;;;0.01;84.35;100464.91;8637888;33;20428;-76
2022/04/10 02:42:44;;;;;;;8.30;3.80;;;;;;;-0.11;83.88;100466.22;8637967;33;20185;-76
2022/04/10 02:47:47;;;;;;;8.20;2.73;;;;;;;0.06;83.50;100480.59;8661167;33;20170;-76
2022/04/10 02:52:51;;;;;;;7.30;3.97;;;;;;;0.15;82.92;100478.47;8632378;33;20344;-76
2022/04/10 02:57:56;;;;;;;10.27;4.13;;;;;;;0.11;83.49;100487.44;8632595;33;20915;-76
2022/04/10 03:02:59;;;;;;;5.13;3.70;;;;;;;-0.00;83.60;100480.78;8651038;33;20182;-76
2022/04/10 03:08:02;;;;;;;7.20;3.27;;;;;;;-0.21;83.74;100493.00;8649705;33;20429;-75
2022/04/10 03:13:08;;;;;;;5.97;2.40;;;;;;;-0.34;84.29;100490.75;8623881;33;22099;-75
2022/04/10 03:18:11;;;;;;;7.33;4.03;;;;;;;-0.09;83.80;100490.75;8621915;33;20952;-75
2022/04/10 03:23:14;;;;;;;3.93;3.37;;;;;;;-0.17;83.66;100490.16;8622832;33;20503;-75
2022/04/10 03:28:18;;;;;;;6.60;3.70;;;;;;;-0.14;83.78;100505.94;8623996;33;20951;-76
2022/04/10 03:33:22;;;;;;;5.43;3.13;;;;;;;-0.15;83.67;100506.84;8623284;33;20642;-74
2022/04/10 03:38:25;;;;;;;12.17;4.57;;;;;;;-0.40;84.48;100506.81;8628567;33;20391;-75
2022/04/10 03:43:32;;;;;;;5.67;2.77;;;;;;;-0.28;84.77;100511.66;8630265;33;20448;-75
2022/04/10 03:48:35;;;;;;;11.13;4.17;;;;;;;-0.22;83.54;100513.25;8635207;33;20544;-74
2022/04/10 03:53:38;;;;;;;12.63;4.83;;;;;;;-0.19;83.99;100518.44;8647513;33;21155;-74
2022/04/10 03:58:44;;;;;;;6.63;3.90;;;;;;;-0.33;84.67;100532.09;8647055;33;20620;-74
2022/04/10 04:03:50;;;;;;;5.13;3.23;;;;;;;-0.51;85.80;100530.91;8647579;33;20226;-75
2022/04/10 04:08:54;;;;;;;13.83;6.80;;;;;;;-0.45;85.56;100550.13;8638554;33;20126;-74
2022/04/10 04:13:58;;;;;;;5.70;3.77;;;;;;;-0.35;84.48;100543.63;8635894;33;20145;-75
2022/04/10 04:19:02;;;;;;;9.17;3.80;;;;;;;-0.43;85.31;100562.34;8659937;33;20224;-74
2022/04/10 04:24:06;;;;;;;6.27;4.00;;;;;;;-0.52;85.67;100563.50;8629478;33;20683;-74
2022/04/10 04:29:11;;;;;;;17.13;8.00;;;;;;;-0.40;84.93;100575.44;8653865;33;20452;-75
2022/04/10 04:34:14;;;;;;;14.93;5.83;;;;;;;-0.35;84.89;100583.22;8629913;33;20532;-75
2022/04/10 04:39:19;;;;;;;7.03;4.03;;;;;;;-0.61;85.68;100590.19;8631547;33;20182;-75
2022/04/10 04:44:26;;;;;;;13.85;5.75;;;;;;;-0.50;84.89;100595.13;8628019;33;20407;-75
2022/04/10 04:49:29;;;;;;;9.90;4.27;;;;;;;-0.35;83.92;100601.69;8627642;33;20308;-75
2022/04/10 04:54:35;;;;;;;8.10;4.23;;;;;;;-0.46;83.92;100614.38;8649495;33;21663;-75
2022/04/10 04:59:40;;;;;;;13.57;6.13;;;;;;;-0.62;84.55;100621.91;8626403;33;20185;-75
2022/04/10 05:04:44;;;;;;;10.63;5.83;;;;;;;-0.63;85.87;100626.31;8635196;33;20934;-75
2022/04/10 05:09:48;;;;;;;9.63;5.63;;;;;;;-0.42;85.21;100629.19;8632408;33;20178;-74
2022/04/10 05:14:52;;;;;;;9.30;5.93;;;;;;;-0.60;85.77;100647.34;8649263;33;21035;-74
2022/04/10 05:19:57;;;;;;;18.17;7.80;;;;;;;-0.36;84.68;100644.81;8622384;33;20920;-74
2022/04/10 05:25:01;;;;;;;8.20;4.27;;;;;;;-0.38;84.74;100649.31;8626021;33;20409;-74
2022/04/10 05:30:11;;;;;;;15.50;8.10;;;;;;;-0.25;84.66;100647.13;8633106;33;20182;-74
2022/04/10 05:35:16;;;;;;;11.80;7.33;;;;;;;-0.16;84.23;100657.41;8639304;33;20170;-74
2022/04/10 05:40:22;;;;;;;13.33;5.30;;;;;;;-0.31;84.92;100656.97;8645245;33;20208;-75
2022/04/10 05:45:28;;;;;;;12.90;6.27;;;;;;;-0.18;84.61;100652.16;8637143;33;20445;-74
2022/04/10 05:50:34;;;;;;;10.80;5.50;;;;;;;0.03;84.05;100660.28;8633061;33;20416;-74
2022/04/10 05:55:37;;;;;;;15.93;4.50;;;;;;;0.04;83.88;100662.91;8631507;33;20417;-75
2022/04/10 06:00:47;;;;;;;12.20;6.47;;;;;;;0.29;83.02;100659.44;8632718;33;21555;-74
2022/04/10 06:05:54;;;;;;;13.37;6.87;;;;;;;0.26;83.19;100670.97;8631015;33;20462;-74
2022/04/10 06:11:08;;;;;;;8.50;4.50;;;;;;;0.39;81.45;100672.28;8632107;33;20153;-75
2022/04/10 06:16:14;;;;;;;11.90;6.80;;;;;;;0.70;81.14;100665.06;8632383;33;20475;-74
2022/04/10 06:21:21;;;;;;;11.20;5.97;;;;;;;0.92;80.16;100681.03;8629369;33;20147;-74
2022/04/10 06:26:24;;;;;;;9.73;5.70;;;;;;;0.97;80.31;100684.38;8633232;33;20195;-75
2022/04/10 06:31:28;;;;;;;11.57;5.33;;;;;;;1.07;79.33;100685.78;8637514;33;20455;-75
2022/04/10 06:36:32;;;;;;;10.33;5.00;;;;;;;1.28;79.11;100679.66;8636460;33;20520;-75
2022/04/10 06:41:35;;;;;;;7.90;3.70;;;;;;;1.43;79.30;100694.09;8626220;33;20540;-75
2022/04/10 06:46:45;;;;;;;14.57;5.80;;;;;;;2.22;77.12;100694.47;8639320;33;20430;-75
2022/04/10 06:51:54;;;;;;;13.15;5.10;;;;;;;1.90;76.44;100699.31;8611510;33;20149;-75
2022/04/10 06:57:04;;;;;;;7.45;3.25;;;;;;;1.35;77.77;100703.25;8581064;33;20190;-74
2022/04/10 07:02:10;;;;;;;10.70;5.63;;;;;;;2.21;75.69;100695.44;8636263;33;20217;-75
2022/04/10 07:07:15;;;;;;;9.68;3.78;;;;;;;2.01;75.88;100716.59;8635422;33;21321;-74
2022/04/10 07:12:18;;;;;;;6.65;3.50;;;;;;;2.65;74.30;100713.09;8629914;33;20408;-75
2022/04/10 07:17:26;;;;;;;11.65;5.35;;;;;;;2.98;73.39;100708.94;8626752;33;20178;-75
2022/04/10 07:27:55;;;;;;;2.85;2.28;;;;;;;2.18;74.76;100724.72;8627082;33;20991;-75
2022/04/10 07:33:08;;;;;;;7.07;3.67;;;;;;;2.27;75.09;100731.41;8627653;33;20274;-75
2022/04/10 07:38:18;;;;;;;4.78;3.15;;;;;;;2.52;73.39;100742.72;8628769;33;20424;-75
2022/04/10 07:43:23;;;;;;;9.05;5.20;;;;;;;3.11;74.39;100737.63;8649678;33;21883;-74
2022/04/10 07:48:29;;;;;;;7.63;4.28;;;;;;;3.17;72.00;100729.38;8622229;33;20517;-74
2022/04/10 07:53:32;;;;;;;10.70;3.97;;;;;;;4.50;69.51;100732.81;8626720;33;20257;-74
2022/04/10 07:58:37;;;;;;;8.82;4.15;;;;;;;4.18;69.18;100732.63;8623015;33;20882;-75
2022/04/10 08:03:56;;;;;;;8.32;4.00;;;;;;;4.30;67.86;100750.63;8625402;33;20503;-74
2022/04/10 08:09:18;;;;;;;7.20;3.58;;;;;;;4.37;69.10;100768.00;8649707;33;20429;-74
2022/04/10 08:14:21;;;;;;;7.15;3.72;;;;;;;3.71;69.54;100770.28;8651070;33;20422;-74
2022/04/10 08:19:25;;;;;;;11.20;4.65;;;;;;;3.88;70.04;100775.69;8650089;33;20180;-74
2022/04/10 08:24:28;;;;;;;7.13;4.45;;;;;;;4.78;67.28;100778.38;8629784;33;21002;-74
2022/04/10 08:29:31;;;;;;;8.65;3.53;;;;;;;4.51;66.20;100780.63;8634331;33;20417;-74
2022/04/10 08:34:36;;;;;;;4.88;2.50;;;;;;;4.18;68.42;100778.69;8656205;33;20440;-74
2022/04/10 08:39:43;;;;;;;7.82;3.38;;;;;;;5.66;66.02;100777.34;8628461;33;20405;-74
2022/04/10 08:44:47;;;;;;;7.82;3.13;;;;;;;4.88;65.63;100785.91;8655021;33;20456;-74
2022/04/10 08:49:54;;;;;;;7.57;3.13;;;;;;;5.04;64.30;100782.41;8650477;33;20453;-74
2022/04/10 08:54:57;;;;;;;6.35;2.90;;;;;;;4.66;65.59;100792.28;8652952;33;20238;-74
2022/04/10 09:00:00;;;;;;;6.15;2.88;;;;;;;4.42;66.54;100804.19;8660459;33;20901;-74
2022/04/10 09:05:06;;;;;;;4.80;2.92;;;;;;;4.73;66.48;100803.50;8669172;33;20650;-74
2022/04/10 09:10:09;;;;;;;6.70;2.78;;;;;;;4.99;62.70;100808.44;8656763;33;20209;-74
2022/04/10 09:15:12;;;;;;;4.53;3.38;;;;;;;5.68;61.78;100804.81;8655366;33;20461;-74
2022/04/10 09:20:17;;;;;;;3.28;2.42;;;;;;;6.19;60.92;100807.34;8653108;33;20445;-74
2022/04/10 09:25:21;;;;;;;3.78;2.47;;;;;;;5.41;63.59;100799.13;8652826;33;21008;-74
2022/04/10 09:30:36;;;;;;;6.55;2.65;;;;;;;4.77;67.38;100802.41;8656898;33;20927;-74
2022/04/10 09:35:44;;;;;;;6.70;2.47;;;;;;;4.28;66.46;100808.38;8658881;33;20432;-75
2022/04/10 09:40:48;;;;;;;3.92;2.47;;;;;;;4.51;66.25;100804.56;8657877;33;20204;-75
2022/04/10 09:45:51;;;;;;;4.40;1.95;;;;;;;5.02;65.25;100788.78;8657820;33;20151;-74
2022/04/10 09:51:00;;;;;;;2.72;1.95;;;;;;;5.40;63.24;100778.78;8660048;33;20556;-74
2022/04/10 09:56:05;;;;;;;4.20;2.25;;;;;;;5.18;64.15;100800.31;8658002;33;20225;-74
2022/04/10 10:01:11;;;;;;;4.75;2.00;;;;;;;2.87;77.14;100813.84;8634760;33;20143;-74
2022/04/10 10:06:19;;;;;;;4.22;2.08;;;;;;;3.38;81.33;100804.56;8663765;33;21537;-74
2022/04/10 10:11:22;;;;;;;6.22;2.05;;;;;;;4.53;78.42;100788.53;8645769;33;21358;-74
2022/04/10 10:16:26;;;;;;;5.07;2.38;;;;;;;5.11;69.24;100784.78;8678133;33;20405;-74
2022/04/10 10:21:31;;;;;;;7.30;2.72;;;;;;;5.60;68.22;100776.84;8680264;33;20471;-73
2022/04/10 10:26:56;;;;;;;2.80;1.50;;;;;;;5.49;63.64;100791.59;8655056;33;20235;-74
2022/04/10 10:32:12;;;;;;;3.35;1.90;;;;;;;6.57;64.42;100770.47;8651534;33;20618;-74
2022/04/10 10:37:17;;;;;;;4.25;1.92;;;;;;;5.69;67.40;100776.34;8649646;33;20584;-74
2022/04/10 10:42:20;;;;;;;6.07;2.10;;;;;;;4.81;69.73;100801.34;8643083;33;20210;-74
2022/04/10 10:47:25;;;;;;;4.88;2.33;;;;;;;3.68;76.59;100840.38;8675379;33;20828;-74
2022/04/10 10:52:30;;;;;;;5.53;2.33;;;;;;;3.32;81.81;100834.03;8672827;33;20469;-74
2022/04/10 10:57:41;;;;;;;4.15;2.42;;;;;;;3.65;81.24;100835.22;8669987;33;21326;-74
2022/04/10 11:02:51;;;;;;;5.65;2.67;;;;;;;3.97;84.31;100821.38;8667808;33;21049;-74
2022/04/10 11:08:04;;;;;;;4.85;2.38;;;;;;;4.91;75.12;100815.03;8661623;33;20281;-74
2022/04/10 11:13:10;;;;;;;3.33;2.17;;;;;;;4.22;77.33;100818.41;8660965;33;20549;-74
2022/04/10 11:18:35;;;;;;;2.65;2.30;;;;;;;5.35;75.63;100809.25;8629838;33;20931;-74
2022/04/10 11:23:45;;;;;;;4.07;2.38;;;;;;;6.18;71.42;100802.97;8632667;33;20146;-74
2022/04/10 11:29:04;;;;;;;4.07;2.47;;;;;;;7.28;68.59;100796.53;8651388;33;20240;-75
2022/04/10 11:34:17;;;;;;;7.25;2.00;;;;;;;7.99;64.32;100784.13;8608338;33;22205;-75
2022/04/10 11:39:28;;;;;;;4.75;2.45;;;;;;;8.65;61.41;100787.03;8622163;33;20168;-75
2022/04/10 11:44:32;;;;;;;4.35;1.95;;;;;;;9.44;56.86;100778.91;8611032;33;20359;-75
2022/04/10 11:49:35;;;;;;;3.17;1.80;;;;;;;8.32;59.41;100799.81;8603809;33;20241;-75
2022/04/10 11:54:40;;;;;;;3.08;1.85;;;;;;;9.39;58.04;100801.66;8575185;33;20402;-75
2022/04/10 11:59:44;;;;;;;3.72;2.22;;;;;;;9.60;54.11;100785.84;8600755;33;20450;-76
2022/04/10 12:04:49;;;;;;;3.10;1.88;;;;;;;8.58;53.12;100784.78;8600367;33;21428;-76
2022/04/10 12:09:54;;;;;;;2.65;1.42;;;;;;;8.42;52.93;100794.75;8591089;33;20488;-76
2022/04/10 12:14:57;;;;;;;7.53;1.88;;;;;;;8.26;51.19;100799.38;8575431;33;20881;-76
2022/04/10 12:20:00;;;;;;;3.67;1.73;;;;;;;9.50;50.83;100807.97;8574013;33;20389;-76
2022/04/10 12:25:06;;;;;;;2.53;1.60;;;;;;;8.30;51.20;100819.63;8558930;33;20452;-76
2022/04/10 12:30:13;;;;;;;4.45;2.22;;;;;;;5.51;67.02;100850.13;8594831;33;20553;-75
2022/04/10 12:35:17;;;;;;;4.93;1.95;;;;;;;5.06;74.20;100847.09;8634640;33;20901;-75
2022/04/10 12:40:28;;;;;;;3.22;2.17;;;;;;;5.49;78.58;100823.56;8651051;33;20449;-75
2022/04/10 12:45:34;;;;;;;6.22;3.22;;;;;;;8.39;75.53;100824.38;8660282;33;20151;-75
2022/04/10 12:50:37;;;;;;;5.53;3.00;;;;;;;8.51;61.01;100815.59;8659891;33;20416;-75
2022/04/10 12:55:42;;;;;;;6.57;3.40;;;;;;;7.92;66.64;100831.78;8636760;33;21356;-75
2022/04/10 13:00:47;;;;;;;4.47;2.35;;;;;;;6.71;72.43;100846.22;8635061;33;21452;-75
2022/04/10 13:06:01;;;;;;;6.45;2.60;;;;;;;7.12;71.85;100837.63;8656370;33;20412;-75
2022/04/10 13:11:09;;;;;;;3.28;2.60;;;;;;;11.32;68.16;100818.88;8660801;33;20985;-75
2022/04/10 13:16:35;;;;;;;6.15;1.88;;;;;;;13.41;53.24;100814.41;8648565;33;20484;-75
2022/04/10 13:21:40;;;;;;;2.70;1.40;;;;;;;12.35;48.27;100828.63;8625747;33;20139;-75
2022/04/10 13:26:46;;;;;;;4.40;1.67;;;;;;;10.04;53.16;100830.16;8657947;33;20949;-76
2022/04/10 13:31:49;;;;;;;3.95;1.25;;;;;;;5.56;66.59;100860.56;8634285;33;20410;-75
2022/04/10 13:36:52;;;;;;;2.45;1.30;;;;;;;4.35;70.50;100860.31;8660279;33;20465;-77
2022/04/10 13:41:57;;;;;;;2.78;1.55;;;;;;;5.43;67.94;100852.31;8666734;33;20908;-75
2022/04/10 13:47:00;;;;;;;1.63;1.40;;;;;;;7.74;61.73;100841.00;8662237;33;20400;-74
2022/04/10 13:52:04;;;;;;;2.70;1.35;;;;;;;7.88;59.88;100850.84;8679674;33;20813;-77
2022/04/10 13:57:13;;;;;;;1.30;1.20;;;;;;;7.79;58.66;100840.69;8676020;33;20256;-77
2022/04/10 14:02:16;;;;;;;1.50;1.30;;;;;;;8.56;55.66;100839.38;8677432;33;20296;-78
2022/04/10 14:07:20;;;;;;;1.63;1.23;;;;;;;8.54;55.10;100830.59;8653989;33;21458;-77
2022/04/10 14:12:24;;;;;;;1.30;1.20;;;;;;;9.20;55.00;100834.22;8684979;33;20157;-76
2022/04/10 14:17:28;;;;;;;1.75;1.17;;;;;;;8.57;55.92;100835.75;8682812;33;20412;-76
2022/04/10 14:22:31;;;;;;;4.97;2.45;;;;;;;8.88;54.48;100823.84;8686771;33;20605;-77
2022/04/10 14:27:35;;;;;;;2.10;1.75;;;;;;;9.31;52.30;100823.63;8682242;33;21534;-77
2022/04/10 14:32:39;;;;;;;3.85;1.60;;;;;;;9.01;50.99;100808.66;8677908;33;20547;-77
2022/04/10 14:37:42;;;;;;;4.35;1.92;;;;;;;9.94;51.77;100811.19;8653551;33;20299;-77
2022/04/10 14:42:46;;;;;;;2.33;1.70;;;;;;;9.32;52.38;100821.78;8672513;33;20130;-77
2022/04/10 14:47:49;;;;;;;3.13;1.77;;;;;;;8.00;55.40;100825.97;8643018;33;20567;-76
2022/04/10 14:52:53;;;;;;;2.00;1.42;;;;;;;8.52;54.87;100827.16;8674679;33;21070;-76
2022/04/10 14:57:57;;;;;;;1.77;1.67;;;;;;;8.79;53.50;100819.13;8637329;33;20142;-75
2022/04/10 15:03:01;;;;;;;4.18;1.40;;;;;;;8.57;51.15;100825.03;8661347;33;20415;-76
2022/04/10 15:08:04;;;;;;;6.13;1.48;;;;;;;8.98;51.71;100821.41;8661579;33;20651;-74
2022/04/10 15:13:11;;;;;;;2.33;1.52;;;;;;;8.49;53.28;100822.84;8636306;33;20519;-75
2022/04/10 15:18:15;;;;;;;2.80;1.63;;;;;;;9.42;50.57;100818.38;8632709;33;20685;-74
2022/04/10 15:23:19;;;;;;;4.43;1.67;;;;;;;9.59;49.15;100809.16;8660694;33;20427;-74
2022/04/10 15:28:23;;;;;;;2.45;1.48;;;;;;;10.20;48.00;100809.28;8656005;33;20152;-74
2022/04/10 15:33:26;;;;;;;1.85;1.75;;;;;;;9.68;47.02;100805.84;8659566;33;20499;-74
2022/04/10 15:38:29;;;;;;;1.75;1.40;;;;;;;11.28;45.95;100808.38;8635014;33;20525;-74
2022/04/10 15:43:34;;;;;;;2.45;1.20;;;;;;;12.49;41.42;100808.63;8660479;33;20462;-76
2022/04/10 15:48:38;;;;;;;2.22;1.50;;;;;;;10.64;45.27;100823.13;8659751;33;20495;-73
2022/04/10 15:53:41;;;;;;;3.90;1.70;;;;;;;10.64;46.12;100823.13;8659901;33;20190;-73
2022/04/10 15:58:45;;;;;;;4.00;1.30;;;;;;;9.41;47.91;100822.03;8659402;33;20138;-74
2022/04/10 16:03:48;;;;;;;2.70;1.40;;;;;;;10.44;48.04;100835.34;8660712;33;22624;-73
2022/04/10 16:08:51;;;;;;;4.05;2.13;;;;;;;10.99;45.83;100832.06;8635662;33;20413;-74
2022/04/10 16:13:56;;;;;;;2.22;1.58;;;;;;;9.50;49.96;100836.63;8660157;33;20481;-75
2022/04/10 16:18:59;;;;;;;1.85;1.55;;;;;;;8.75;52.38;100847.03;8661614;33;21106;-74
2022/04/10 16:24:02;;;;;;;4.68;2.53;;;;;;;10.46;48.70;100841.47;8659760;33;20536;-73
2022/04/10 16:34:27;;;;;;;5.63;1.75;;;;;;;8.80;51.65;100850.28;8639890;33;20619;-74
2022/04/10 16:39:35;;;;;;;3.35;1.88;;;;;;;8.55;52.41;100856.41;8637913;33;21337;-74
2022/04/10 16:44:39;;;;;;;3.88;1.70;;;;;;;8.92;49.75;100852.16;8657423;33;20606;-74
2022/04/10 16:49:42;;;;;;;5.30;1.85;;;;;;;7.80;48.97;100863.81;8652952;33;20408;-74
2022/04/10 16:54:49;;;;;;;5.35;1.80;;;;;;;7.89;50.54;100863.25;8653778;33;20426;-74
2022/04/10 16:59:54;;;;;;;2.85;1.58;;;;;;;7.42;50.65;100867.88;8631399;33;20430;-74
2022/04/10 17:04:57;;;;;;;2.85;1.83;;;;;;;7.34;52.12;100856.78;8662983;33;20188;-74
2022/04/10 17:10:00;;;;;;;2.05;1.60;;;;;;;7.22;53.43;100868.22;8656357;33;21504;-75
2022/04/10 17:15:05;;;;;;;1.80;1.50;;;;;;;7.02;52.96;100864.03;8635574;33;20199;-74
2022/04/10 17:20:11;;;;;;;4.03;1.70;;;;;;;7.12;52.46;100867.88;8663155;33;20401;-74
2022/04/10 17:25:14;;;;;;;4.93;2.22;;;;;;;7.25;53.40;100873.38;8641894;33;20557;-74
2022/04/10 17:30:18;;;;;;;5.88;2.70;;;;;;;7.46;52.50;100873.88;8667823;33;20195;-74
2022/04/10 17:35:21;;;;;;;5.68;2.90;;;;;;;7.59;51.83;100863.31;8671643;33;20540;-74
2022/04/10 17:40:24;;;;;;;5.57;2.65;;;;;;;7.58;51.79;100878.50;8679272;33;20423;-74
2022/04/10 17:45:29;;;;;;;5.35;2.53;;;;;;;7.22;56.27;100868.22;8683035;33;20554;-74
2022/04/10 17:50:32;;;;;;;3.47;2.20;;;;;;;6.61;59.39;100876.13;8658228;33;20240;-74
2022/04/10 17:55:36;;;;;;;5.05;2.70;;;;;;;6.34;61.07;100865.19;8683757;33;20178;-75
2022/04/10 18:00:40;;;;;;;4.45;2.22;;;;;;;6.13;62.42;100864.56;8685845;33;20317;-74
2022/04/10 18:05:43;;;;;;;6.13;2.47;;;;;;;5.93;63.20;100876.31;8661637;33;20423;-75
2022/04/10 18:10:46;;;;;;;4.63;3.42;;;;;;;5.73;63.41;100876.50;8680717;33;21029;-74
2022/04/10 18:15:51;;;;;;;5.25;4.22;;;;;;;5.59;63.91;100882.56;8654280;33;20447;-74
2022/04/10 18:20:54;;;;;;;8.70;4.22;;;;;;;5.43;64.23;100878.97;8678110;33;20267;-74
2022/04/10 18:25:58;;;;;;;5.10;3.53;;;;;;;5.39;63.90;100882.75;8678009;33;20431;-74
2022/04/10 18:31:02;;;;;;;4.50;4.10;;;;;;;5.23;63.83;100893.31;8678235;33;20186;-74
2022/04/10 18:36:06;;;;;;;5.18;3.88;;;;;;;5.06;65.06;100905.69;8679146;33;21090;-74
2022/04/10 18:41:09;;;;;;;6.90;4.40;;;;;;;5.04;66.16;100899.56;8680603;33;20547;-75
2022/04/10 18:46:14;;;;;;;6.85;4.68;;;;;;;5.03;67.12;100918.28;8680830;32;20752;-75
2022/04/10 18:51:17;;;;;;;4.90;3.47;;;;;;;4.85;67.67;100914.69;8665284;33;21292;-75
2022/04/10 18:56:20;;;;;;;4.30;3.90;;;;;;;4.77;68.69;100919.53;8662746;33;20755;-75
2022/04/10 19:01:24;;;;;;;5.13;4.22;;;;;;;4.88;68.47;100922.53;8664422;33;20204;-75
2022/04/10 19:06:27;;;;;;;4.68;3.13;;;;;;;4.92;68.76;100931.25;8665198;33;20415;-74
2022/04/10 19:11:30;;;;;;;5.63;4.18;;;;;;;5.00;68.49;100929.97;8663677;33;21901;-77
2022/04/10 19:16:35;;;;;;;6.03;4.70;;;;;;;5.06;67.90;100928.78;8663029;33;20480;-75
2022/04/10 19:21:38;;;;;;;7.05;3.92;;;;;;;4.99;67.57;100933.56;8638339;33;20225;-75
2022/04/10 19:26:41;;;;;;;6.53;4.63;;;;;;;4.92;67.77;100934.75;8663015;33;20181;-75
2022/04/10 19:31:45;;;;;;;9.85;6.50;;;;;;;4.78;67.95;100929.25;8662528;33;20127;-75
2022/04/10 19:36:53;;;;;;;14.75;9.38;;;;;;;4.68;68.27;100930.63;8662133;33;20208;-75
2022/04/10 19:41:56;;;;;;;11.80;8.80;;;;;;;4.57;68.60;100931.97;8661487;33;20190;-75
2022/04/10 19:47:01;;;;;;;6.45;4.50;;;;;;;4.44;69.09;100927.31;8664242;33;20626;-75
2022/04/10 19:52:05;;;;;;;11.43;5.65;;;;;;;4.38;69.50;100929.31;8662531;33;20186;-75
2022/04/10 19:57:08;;;;;;;8.73;5.75;;;;;;;4.32;69.15;100934.06;8634591;33;20186;-75
2022/04/10 20:02:12;;;;;;;11.52;6.45;;;;;;;4.26;69.15;100937.03;8664616;33;20425;-75
2022/04/10 20:07:15;;;;;;;8.32;6.00;;;;;;;4.17;69.24;100936.50;8663042;33;20440;-75
2022/04/10 20:12:18;;;;;;;11.20;5.95;;;;;;;4.22;69.51;100936.28;8636336;33;20456;-75
2022/04/10 20:17:23;;;;;;;11.80;6.25;;;;;;;4.12;69.53;100941.19;8660743;33;20404;-74
2022/04/10 20:22:26;;;;;;;8.82;5.10;;;;;;;4.09;70.04;100941.31;8660961;33;20611;-74
2022/04/10 20:27:29;;;;;;;6.15;5.05;;;;;;;4.04;70.26;100937.13;8659464;33;21498;-74
2022/04/10 20:32:33;;;;;;;7.60;5.13;;;;;;;4.00;70.42;100944.38;8634894;33;20651;-74
2022/04/10 20:37:37;;;;;;;7.88;5.22;;;;;;;3.87;70.76;100946.72;8659084;33;20432;-75
2022/04/10 20:42:40;;;;;;;7.35;5.53;;;;;;;3.76;71.15;100941.03;8662927;33;20999;-75
2022/04/10 20:47:44;;;;;;;7.03;4.95;;;;;;;3.71;71.48;100941.22;8661849;33;20643;-75
2022/04/10 20:52:48;;;;;;;7.30;5.28;;;;;;;3.60;71.47;100935.50;8651803;33;21248;-75
2022/04/10 20:57:51;;;;;;;15.05;9.43;;;;;;;3.50;71.92;100943.00;8653791;33;20440;-75
2022/04/10 21:02:56;;;;;;;10.40;7.88;;;;;;;3.45;71.94;100936.16;8657249;33;20478;-75
2022/04/10 21:07:59;;;;;;;20.35;7.53;;;;;;;3.31;72.22;100944.69;8653973;33;20150;-75
2022/04/10 21:13:02;;;;;;;8.85;5.63;;;;;;;3.25;72.53;100942.31;8655370;33;20313;-76
2022/04/10 21:18:07;;;;;;;8.30;5.22;;;;;;;3.17;72.58;100942.63;8654227;33;20157;-75
2022/04/10 21:23:10;;;;;;;9.55;5.90;;;;;;;3.11;73.00;100948.19;8654460;33;20185;-75
2022/04/10 21:28:13;;;;;;;8.38;5.95;;;;;;;3.03;72.99;100939.69;8654085;33;20196;-75
2022/04/10 21:33:17;;;;;;;9.77;6.80;;;;;;;3.12;73.63;100944.59;8660058;33;21952;-75
2022/04/10 21:38:20;;;;;;;9.85;7.45;;;;;;;3.02;74.15;100938.81;8659550;33;20430;-75
2022/04/10 21:43:24;;;;;;;11.45;8.02;;;;;;;2.96;74.28;100943.50;8661117;33;20443;-75
2022/04/10 21:48:28;;;;;;;9.05;6.25;;;;;;;2.91;74.73;100942.81;8660058;33;20387;-75
2022/04/10 21:53:32;;;;;;;12.75;7.50;;;;;;;2.86;74.75;100940.38;8660428;33;20300;-75
2022/04/10 21:58:35;;;;;;;11.23;7.25;;;;;;;2.83;74.77;100940.50;8658488;33;20192;-75
2022/04/10 22:03:39;;;;;;;12.82;7.95;;;;;;;2.78;74.64;100939.81;8665138;33;20138;-75
2022/04/10 22:08:42;;;;;;;10.15;8.23;;;;;;;2.65;75.07;100933.25;8665792;33;21237;-76
2022/04/10 22:13:45;;;;;;;9.02;6.20;;;;;;;2.56;75.04;100945.94;8667946;33;20414;-76
2022/04/10 22:18:50;;;;;;;12.63;6.85;;;;;;;2.43;75.68;100936.69;8664477;33;20416;-75
2022/04/10 22:23:53;;;;;;;16.08;9.90;;;;;;;2.54;75.46;100937.19;8664983;33;20154;-75
2022/04/10 22:28:56;;;;;;;13.60;9.27;;;;;;;2.49;75.58;100935.59;8663801;33;20267;-75
2022/04/10 22:34:00;;;;;;;7.38;6.53;;;;;;;2.51;75.36;100933.75;8660274;33;20278;-75
2022/04/10 22:39:03;;;;;;;11.88;8.05;;;;;;;2.43;75.37;100935.84;8674922;33;22345;-75
2022/04/10 22:44:07;;;;;;;11.07;7.78;;;;;;;2.35;75.72;100930.81;8653664;33;21444;-75
2022/04/10 22:49:11;;;;;;;13.80;7.85;;;;;;;2.27;75.76;100925.81;8671687;33;20279;-75
2022/04/10 22:54:14;;;;;;;9.60;6.75;;;;;;;2.23;75.94;100926.84;8664359;33;20483;-76
2022/04/10 22:59:18;;;;;;;8.70;5.85;;;;;;;2.18;76.04;100923.50;8659161;33;21029;-76
2022/04/10 23:04:23;;;;;;;12.68;7.50;;;;;;;2.18;76.04;100927.03;8658016;33;20440;-76
2022/04/10 23:09:26;;;;;;;11.75;6.80;;;;;;;2.17;75.85;100927.09;8658716;33;20267;-75
2022/04/10 23:14:29;;;;;;;9.40;6.28;;;;;;;2.06;76.17;100930.16;8661336;33;20208;-76
2022/04/10 23:19:33;;;;;;;11.30;6.30;;;;;;;2.03;76.53;100924.06;8660630;33;21442;-75
2022/04/10 23:24:36;;;;;;;10.88;6.68;;;;;;;1.96;76.45;100926.09;8661365;33;20519;-75
2022/04/10 23:29:39;;;;;;;11.85;6.35;;;;;;;1.97;76.31;100921.66;8659355;33;20410;-75
2022/04/10 23:34:44;;;;;;;7.65;5.10;;;;;;;1.86;76.51;100916.75;8634387;33;20523;-75
2022/04/10 23:39:47;;;;;;;11.35;6.22;;;;;;;1.87;76.60;100916.69;8631472;33;20131;-75
2022/04/10 23:44:50;;;;;;;10.70;5.80;;;;;;;1.87;76.42;100922.00;8661329;33;20154;-75
2022/04/10 23:49:54;;;;;;;12.68;6.20;;;;;;;1.78;76.85;100919.66;8634569;33;20199;-75
2022/04/10 23:54:57;;;;;;;9.83;6.57;;;;;;;1.73;76.82;100919.00;8661341;33;20421;-75
